sensor_id;sensor_type;location;lat;lon;timestamp;P1;durP1;ratioP1;P2;durP2;ratioP2
18999;SDS011;9633;50.980;13.850;2023-05-14T00:00:26;13.00;;;11.80;;
18999;SDS011;9633;50.980;13.850;2023-05-14T00:01:59;14.20;;;12.80;;
18999;SDS011;9633;50.980;13.850;2023-05-14T00:03:32;15.10;;;12.50;;
18999;SDS011;9633;50.980;13.850;2023-05-14T00:05:05;14.63;;;13.13;;
18999;SDS011;9633;50.980;13.850;2023-05-14T00:06:40;13.63;;;12.17;;
18999;SDS011;9633;50.980;13.850;2023-05-14T00:08:14;15.33;;;13.00;;
18999;SDS011;9633;50.980;13.850;2023-05-14T00:09:47;14.20;;;12.70;;
18999;SDS011;9633;50.980;13.850;2023-05-14T00:11:20;14.70;;;13.20;;
18999;SDS011;9633;50.980;13.850;2023-05-14T00:12:54;14.80;;;13.30;;
18999;SDS011;9633;50.980;13.850;2023-05-14T00:14:27;14.27;;;12.83;;
18999;SDS011;9633;50.980;13.850;2023-05-14T00:16:01;15.07;;;13.17;;
18999;SDS011;9633;50.980;13.850;2023-05-14T00:17:33;15.17;;;13.60;;
18999;SDS011;9633;50.980;13.850;2023-05-14T00:19:07;15.23;;;13.73;;
18999;SDS011;9633;50.980;13.850;2023-05-14T00:20:40;14.93;;;13.53;;
18999;SDS011;9633;50.980;13.850;2023-05-14T00:22:15;15.20;;;13.60;;
18999;SDS011;9633;50.980;13.850;2023-05-14T00:23:49;15.47;;;13.43;;
18999;SDS011;9633;50.980;13.850;2023-05-14T00:25:22;15.43;;;13.93;;
18999;SDS011;9633;50.980;13.850;2023-05-14T00:26:56;15.10;;;13.60;;
18999;SDS011;9633;50.980;13.850;2023-05-14T00:28:28;17.00;;;15.23;;
18999;SDS011;9633;50.980;13.850;2023-05-14T00:30:02;16.70;;;15.00;;
18999;SDS011;9633;50.980;13.850;2023-05-14T00:31:35;17.67;;;15.73;;
18999;SDS011;9633;50.980;13.850;2023-05-14T00:33:08;16.63;;;15.03;;
18999;SDS011;9633;50.980;13.850;2023-05-14T00:34:41;16.20;;;14.60;;
18999;SDS011;9633;50.980;13.850;2023-05-14T00:36:14;15.57;;;14.10;;
18999;SDS011;9633;50.980;13.850;2023-05-14T00:37:49;16.27;;;14.77;;
18999;SDS011;9633;50.980;13.850;2023-05-14T00:39:22;15.53;;;13.93;;
18999;SDS011;9633;50.980;13.850;2023-05-14T00:40:56;15.73;;;14.13;;
18999;SDS011;9633;50.980;13.850;2023-05-14T00:42:29;15.20;;;13.67;;
18999;SDS011;9633;50.980;13.850;2023-05-14T00:44:03;16.33;;;14.73;;
18999;SDS011;9633;50.980;13.850;2023-05-14T00:45:36;16.83;;;14.00;;
18999;SDS011;9633;50.980;13.850;2023-05-14T00:47:09;15.67;;;14.03;;
18999;SDS011;9633;50.980;13.850;2023-05-14T00:48:43;16.77;;;15.00;;
18999;SDS011;9633;50.980;13.850;2023-05-14T00:50:15;17.03;;;15.37;;
18999;SDS011;9633;50.980;13.850;2023-05-14T00:51:50;15.27;;;13.87;;
18999;SDS011;9633;50.980;13.850;2023-05-14T00:53:24;15.43;;;13.93;;
18999;SDS011;9633;50.980;13.850;2023-05-14T00:54:57;15.03;;;13.63;;
18999;SDS011;9633;50.980;13.850;2023-05-14T00:56:31;14.07;;;12.70;;
18999;SDS011;9633;50.980;13.850;2023-05-14T00:58:04;14.40;;;12.90;;
18999;SDS011;9633;50.980;13.850;2023-05-14T00:59:39;14.30;;;13.00;;
18999;SDS011;9633;50.980;13.850;2023-05-14T01:01:13;15.00;;;13.40;;
18999;SDS011;9633;50.980;13.850;2023-05-14T01:02:47;14.10;;;12.80;;
18999;SDS011;9633;50.980;13.850;2023-05-14T01:04:20;14.30;;;12.90;;
18999;SDS011;9633;50.980;13.850;2023-05-14T01:05:55;14.67;;;13.23;;
18999;SDS011;9633;50.980;13.850;2023-05-14T01:07:34;16.23;;;13.27;;
18999;SDS011;9633;50.980;13.850;2023-05-14T01:09:14;14.33;;;12.77;;
18999;SDS011;9633;50.980;13.850;2023-05-14T01:10:50;13.97;;;12.60;;
18999;SDS011;9633;50.980;13.850;2023-05-14T01:12:26;13.63;;;12.23;;
18999;SDS011;9633;50.980;13.850;2023-05-14T01:14:02;13.40;;;11.97;;
18999;SDS011;9633;50.980;13.850;2023-05-14T01:15:40;13.80;;;12.40;;
18999;SDS011;9633;50.980;13.850;2023-05-14T01:17:15;13.83;;;12.50;;
18999;SDS011;9633;50.980;13.850;2023-05-14T01:18:50;14.70;;;13.30;;
18999;SDS011;9633;50.980;13.850;2023-05-14T01:20:24;14.60;;;13.23;;
18999;SDS011;9633;50.980;13.850;2023-05-14T01:21:59;13.70;;;12.40;;
18999;SDS011;9633;50.980;13.850;2023-05-14T01:23:33;13.63;;;12.23;;
18999;SDS011;9633;50.980;13.850;2023-05-14T01:25:07;14.93;;;12.50;;
18999;SDS011;9633;50.980;13.850;2023-05-14T01:26:40;13.53;;;12.23;;
18999;SDS011;9633;50.980;13.850;2023-05-14T01:28:14;14.20;;;12.90;;
18999;SDS011;9633;50.980;13.850;2023-05-14T01:29:52;13.87;;;12.57;;
18999;SDS011;9633;50.980;13.850;2023-05-14T01:31:27;13.40;;;12.10;;
18999;SDS011;9633;50.980;13.850;2023-05-14T01:33:02;14.70;;;13.27;;
18999;SDS011;9633;50.980;13.850;2023-05-14T01:34:37;12.80;;;11.60;;
18999;SDS011;9633;50.980;13.850;2023-05-14T01:36:11;13.43;;;12.03;;
18999;SDS011;9633;50.980;13.850;2023-05-14T01:37:47;15.50;;;12.83;;
18999;SDS011;9633;50.980;13.850;2023-05-14T01:39:21;14.27;;;12.87;;
18999;SDS011;9633;50.980;13.850;2023-05-14T01:40:55;14.40;;;13.03;;
18999;SDS011;9633;50.980;13.850;2023-05-14T01:42:29;13.97;;;12.40;;
18999;SDS011;9633;50.980;13.850;2023-05-14T01:44:02;14.50;;;13.00;;
18999;SDS011;9633;50.980;13.850;2023-05-14T01:45:36;13.10;;;11.87;;
18999;SDS011;9633;50.980;13.850;2023-05-14T01:47:09;13.43;;;12.00;;
18999;SDS011;9633;50.980;13.850;2023-05-14T01:48:43;13.43;;;12.13;;
18999;SDS011;9633;50.980;13.850;2023-05-14T01:50:16;13.87;;;12.47;;
18999;SDS011;9633;50.980;13.850;2023-05-14T01:51:49;13.30;;;12.00;;
18999;SDS011;9633;50.980;13.850;2023-05-14T01:53:23;12.97;;;11.70;;
18999;SDS011;9633;50.980;13.850;2023-05-14T01:54:57;13.67;;;12.23;;
18999;SDS011;9633;50.980;13.850;2023-05-14T01:56:30;13.67;;;12.30;;
18999;SDS011;9633;50.980;13.850;2023-05-14T01:58:03;14.83;;;12.83;;
18999;SDS011;9633;50.980;13.850;2023-05-14T01:59:36;13.10;;;11.83;;
18999;SDS011;9633;50.980;13.850;2023-05-14T02:01:09;13.60;;;12.17;;
18999;SDS011;9633;50.980;13.850;2023-05-14T02:02:43;13.93;;;12.63;;
18999;SDS011;9633;50.980;13.850;2023-05-14T02:04:17;13.63;;;12.30;;
18999;SDS011;9633;50.980;13.850;2023-05-14T02:05:51;14.73;;;13.33;;
18999;SDS011;9633;50.980;13.850;2023-05-14T02:07:24;13.37;;;12.07;;
18999;SDS011;9633;50.980;13.850;2023-05-14T02:08:59;15.10;;;13.63;;
18999;SDS011;9633;50.980;13.850;2023-05-14T02:10:32;14.40;;;12.90;;
18999;SDS011;9633;50.980;13.850;2023-05-14T02:12:06;13.70;;;12.33;;
18999;SDS011;9633;50.980;13.850;2023-05-14T02:13:41;13.57;;;12.23;;
18999;SDS011;9633;50.980;13.850;2023-05-14T02:15:13;13.50;;;12.20;;
18999;SDS011;9633;50.980;13.850;2023-05-14T02:16:47;15.13;;;13.53;;
18999;SDS011;9633;50.980;13.850;2023-05-14T02:18:21;14.73;;;13.27;;
18999;SDS011;9633;50.980;13.850;2023-05-14T02:19:55;14.87;;;13.37;;
18999;SDS011;9633;50.980;13.850;2023-05-14T02:21:29;14.67;;;13.17;;
18999;SDS011;9633;50.980;13.850;2023-05-14T02:23:02;14.73;;;13.17;;
18999;SDS011;9633;50.980;13.850;2023-05-14T02:24:37;14.63;;;13.13;;
18999;SDS011;9633;50.980;13.850;2023-05-14T02:26:11;14.00;;;12.57;;
18999;SDS011;9633;50.980;13.850;2023-05-14T02:27:44;12.80;;;11.50;;
18999;SDS011;9633;50.980;13.850;2023-05-14T02:29:18;14.90;;;13.33;;
18999;SDS011;9633;50.980;13.850;2023-05-14T02:30:51;14.13;;;12.73;;
18999;SDS011;9633;50.980;13.850;2023-05-14T02:32:23;14.00;;;12.60;;
18999;SDS011;9633;50.980;13.850;2023-05-14T02:33:57;12.57;;;11.27;;
18999;SDS011;9633;50.980;13.850;2023-05-14T02:35:30;14.10;;;12.67;;
18999;SDS011;9633;50.980;13.850;2023-05-14T02:37:04;14.23;;;12.83;;
18999;SDS011;9633;50.980;13.850;2023-05-14T02:38:37;14.37;;;12.93;;
18999;SDS011;9633;50.980;13.850;2023-05-14T02:40:12;15.47;;;13.83;;
18999;SDS011;9633;50.980;13.850;2023-05-14T02:41:46;14.13;;;12.73;;
18999;SDS011;9633;50.980;13.850;2023-05-14T02:43:20;15.20;;;13.67;;
18999;SDS011;9633;50.980;13.850;2023-05-14T02:44:53;14.57;;;13.10;;
18999;SDS011;9633;50.980;13.850;2023-05-14T02:46:26;15.00;;;13.43;;
18999;SDS011;9633;50.980;13.850;2023-05-14T02:48:00;14.47;;;12.97;;
18999;SDS011;9633;50.980;13.850;2023-05-14T02:49:34;14.77;;;13.37;;
18999;SDS011;9633;50.980;13.850;2023-05-14T02:51:07;15.10;;;13.50;;
18999;SDS011;9633;50.980;13.850;2023-05-14T02:52:41;15.07;;;13.67;;
18999;SDS011;9633;50.980;13.850;2023-05-14T02:54:13;15.00;;;13.50;;
18999;SDS011;9633;50.980;13.850;2023-05-14T02:55:48;15.63;;;14.03;;
18999;SDS011;9633;50.980;13.850;2023-05-14T02:57:21;14.67;;;13.23;;
18999;SDS011;9633;50.980;13.850;2023-05-14T02:58:54;15.30;;;13.70;;
18999;SDS011;9633;50.980;13.850;2023-05-14T03:00:28;14.43;;;13.00;;
18999;SDS011;9633;50.980;13.850;2023-05-14T03:02:02;14.47;;;13.07;;
18999;SDS011;9633;50.980;13.850;2023-05-14T03:03:36;15.17;;;13.67;;
18999;SDS011;9633;50.980;13.850;2023-05-14T03:05:10;14.73;;;13.23;;
18999;SDS011;9633;50.980;13.850;2023-05-14T03:06:43;15.07;;;12.97;;
18999;SDS011;9633;50.980;13.850;2023-05-14T03:08:17;15.43;;;13.27;;
18999;SDS011;9633;50.980;13.850;2023-05-14T03:09:50;14.50;;;13.10;;
18999;SDS011;9633;50.980;13.850;2023-05-14T03:11:25;14.77;;;13.17;;
18999;SDS011;9633;50.980;13.850;2023-05-14T03:12:58;14.57;;;13.07;;
18999;SDS011;9633;50.980;13.850;2023-05-14T03:14:31;13.30;;;11.97;;
18999;SDS011;9633;50.980;13.850;2023-05-14T03:16:05;14.73;;;12.70;;
18999;SDS011;9633;50.980;13.850;2023-05-14T03:17:38;14.57;;;13.17;;
18999;SDS011;9633;50.980;13.850;2023-05-14T03:19:12;14.00;;;12.57;;
18999;SDS011;9633;50.980;13.850;2023-05-14T03:20:44;14.27;;;12.83;;
18999;SDS011;9633;50.980;13.850;2023-05-14T03:22:18;14.40;;;12.87;;
18999;SDS011;9633;50.980;13.850;2023-05-14T03:23:51;14.40;;;12.90;;
18999;SDS011;9633;50.980;13.850;2023-05-14T03:25:25;14.90;;;13.47;;
18999;SDS011;9633;50.980;13.850;2023-05-14T03:27:00;14.70;;;12.77;;
18999;SDS011;9633;50.980;13.850;2023-05-14T03:28:33;13.70;;;12.30;;
18999;SDS011;9633;50.980;13.850;2023-05-14T03:30:06;13.23;;;11.93;;
18999;SDS011;9633;50.980;13.850;2023-05-14T03:31:40;14.70;;;13.20;;
18999;SDS011;9633;50.980;13.850;2023-05-14T03:33:12;14.20;;;12.70;;
18999;SDS011;9633;50.980;13.850;2023-05-14T03:34:46;14.23;;;12.90;;
18999;SDS011;9633;50.980;13.850;2023-05-14T03:36:19;14.03;;;12.67;;
18999;SDS011;9633;50.980;13.850;2023-05-14T03:37:52;14.87;;;13.27;;
18999;SDS011;9633;50.980;13.850;2023-05-14T03:39:28;13.53;;;12.23;;
18999;SDS011;9633;50.980;13.850;2023-05-14T03:41:02;14.43;;;12.37;;
18999;SDS011;9633;50.980;13.850;2023-05-14T03:42:36;13.43;;;12.13;;
18999;SDS011;9633;50.980;13.850;2023-05-14T03:44:10;13.47;;;12.23;;
18999;SDS011;9633;50.980;13.850;2023-05-14T03:45:43;13.43;;;12.03;;
18999;SDS011;9633;50.980;13.850;2023-05-14T03:47:20;13.50;;;12.20;;
18999;SDS011;9633;50.980;13.850;2023-05-14T03:48:53;13.33;;;11.93;;
18999;SDS011;9633;50.980;13.850;2023-05-14T03:50:27;13.47;;;12.27;;
18999;SDS011;9633;50.980;13.850;2023-05-14T03:52:00;13.07;;;11.87;;
18999;SDS011;9633;50.980;13.850;2023-05-14T03:53:34;12.53;;;11.33;;
18999;SDS011;9633;50.980;13.850;2023-05-14T03:55:08;14.50;;;13.10;;
18999;SDS011;9633;50.980;13.850;2023-05-14T03:56:41;13.13;;;11.93;;
18999;SDS011;9633;50.980;13.850;2023-05-14T03:58:16;12.87;;;11.67;;
18999;SDS011;9633;50.980;13.850;2023-05-14T03:59:49;13.57;;;12.17;;
18999;SDS011;9633;50.980;13.850;2023-05-14T04:01:23;12.57;;;11.40;;
18999;SDS011;9633;50.980;13.850;2023-05-14T04:02:56;12.23;;;11.03;;
18999;SDS011;9633;50.980;13.850;2023-05-14T04:04:29;12.50;;;11.30;;
18999;SDS011;9633;50.980;13.850;2023-05-14T04:06:02;12.93;;;11.63;;
18999;SDS011;9633;50.980;13.850;2023-05-14T04:07:36;12.13;;;10.93;;
18999;SDS011;9633;50.980;13.850;2023-05-14T04:09:09;12.30;;;11.20;;
18999;SDS011;9633;50.980;13.850;2023-05-14T04:10:43;12.20;;;11.10;;
18999;SDS011;9633;50.980;13.850;2023-05-14T04:12:16;11.77;;;10.60;;
18999;SDS011;9633;50.980;13.850;2023-05-14T04:13:52;11.67;;;10.37;;
18999;SDS011;9633;50.980;13.850;2023-05-14T04:15:26;11.90;;;10.63;;
18999;SDS011;9633;50.980;13.850;2023-05-14T04:16:59;12.17;;;10.90;;
18999;SDS011;9633;50.980;13.850;2023-05-14T04:18:32;12.00;;;10.90;;
18999;SDS011;9633;50.980;13.850;2023-05-14T04:20:06;11.03;;;9.93;;
18999;SDS011;9633;50.980;13.850;2023-05-14T04:21:40;12.30;;;10.47;;
18999;SDS011;9633;50.980;13.850;2023-05-14T04:23:13;11.77;;;10.53;;
18999;SDS011;9633;50.980;13.850;2023-05-14T04:24:47;12.00;;;10.80;;
18999;SDS011;9633;50.980;13.850;2023-05-14T04:26:20;10.50;;;9.50;;
18999;SDS011;9633;50.980;13.850;2023-05-14T04:27:54;12.33;;;10.03;;
18999;SDS011;9633;50.980;13.850;2023-05-14T04:29:29;10.97;;;9.93;;
18999;SDS011;9633;50.980;13.850;2023-05-14T04:31:02;11.60;;;10.50;;
18999;SDS011;9633;50.980;13.850;2023-05-14T04:32:36;11.53;;;10.47;;
18999;SDS011;9633;50.980;13.850;2023-05-14T04:34:09;11.03;;;9.93;;
18999;SDS011;9633;50.980;13.850;2023-05-14T04:35:42;11.50;;;10.40;;
18999;SDS011;9633;50.980;13.850;2023-05-14T04:37:16;10.53;;;9.53;;
18999;SDS011;9633;50.980;13.850;2023-05-14T04:38:50;11.23;;;10.13;;
18999;SDS011;9633;50.980;13.850;2023-05-14T04:40:23;11.47;;;10.30;;
18999;SDS011;9633;50.980;13.850;2023-05-14T04:41:56;11.83;;;10.63;;
18999;SDS011;9633;50.980;13.850;2023-05-14T04:43:29;12.20;;;11.00;;
18999;SDS011;9633;50.980;13.850;2023-05-14T04:45:05;11.57;;;10.27;;
18999;SDS011;9633;50.980;13.850;2023-05-14T04:46:39;12.50;;;11.30;;
18999;SDS011;9633;50.980;13.850;2023-05-14T04:48:11;12.30;;;11.10;;
18999;SDS011;9633;50.980;13.850;2023-05-14T04:49:45;12.83;;;11.10;;
18999;SDS011;9633;50.980;13.850;2023-05-14T04:51:17;12.33;;;11.07;;
18999;SDS011;9633;50.980;13.850;2023-05-14T04:52:51;11.43;;;10.23;;
18999;SDS011;9633;50.980;13.850;2023-05-14T04:54:26;12.50;;;11.27;;
18999;SDS011;9633;50.980;13.850;2023-05-14T04:55:59;11.90;;;10.80;;
18999;SDS011;9633;50.980;13.850;2023-05-14T04:57:32;11.87;;;10.77;;
18999;SDS011;9633;50.980;13.850;2023-05-14T04:59:05;11.77;;;10.67;;
18999;SDS011;9633;50.980;13.850;2023-05-14T05:00:39;12.50;;;10.50;;
18999;SDS011;9633;50.980;13.850;2023-05-14T05:02:12;11.77;;;10.60;;
18999;SDS011;9633;50.980;13.850;2023-05-14T05:03:45;12.63;;;11.33;;
18999;SDS011;9633;50.980;13.850;2023-05-14T05:05:19;12.23;;;11.03;;
18999;SDS011;9633;50.980;13.850;2023-05-14T05:06:52;11.70;;;10.50;;
18999;SDS011;9633;50.980;13.850;2023-05-14T05:08:25;11.23;;;10.23;;
18999;SDS011;9633;50.980;13.850;2023-05-14T05:09:58;11.30;;;10.20;;
18999;SDS011;9633;50.980;13.850;2023-05-14T05:11:32;11.97;;;10.77;;
18999;SDS011;9633;50.980;13.850;2023-05-14T05:13:05;11.80;;;10.70;;
18999;SDS011;9633;50.980;13.850;2023-05-14T05:14:39;11.47;;;10.03;;
18999;SDS011;9633;50.980;13.850;2023-05-14T05:16:13;10.70;;;9.67;;
18999;SDS011;9633;50.980;13.850;2023-05-14T05:17:47;10.63;;;9.60;;
18999;SDS011;9633;50.980;13.850;2023-05-14T05:19:20;10.57;;;9.47;;
18999;SDS011;9633;50.980;13.850;2023-05-14T05:21:10;10.70;;;9.67;;
18999;SDS011;9633;50.980;13.850;2023-05-14T05:22:43;9.80;;;8.97;;
18999;SDS011;9633;50.980;13.850;2023-05-14T05:24:17;11.30;;;9.50;;
18999;SDS011;9633;50.980;13.850;2023-05-14T05:25:50;10.40;;;9.40;;
18999;SDS011;9633;50.980;13.850;2023-05-14T05:27:23;10.80;;;9.80;;
18999;SDS011;9633;50.980;13.850;2023-05-14T05:28:57;10.67;;;9.67;;
18999;SDS011;9633;50.980;13.850;2023-05-14T05:30:29;10.77;;;9.77;;
18999;SDS011;9633;50.980;13.850;2023-05-14T05:32:05;11.33;;;9.70;;
18999;SDS011;9633;50.980;13.850;2023-05-14T05:33:39;10.30;;;9.40;;
18999;SDS011;9633;50.980;13.850;2023-05-14T05:35:11;11.17;;;10.07;;
18999;SDS011;9633;50.980;13.850;2023-05-14T05:36:45;13.13;;;9.70;;
18999;SDS011;9633;50.980;13.850;2023-05-14T05:38:18;10.27;;;9.27;;
18999;SDS011;9633;50.980;13.850;2023-05-14T05:39:52;10.67;;;9.63;;
18999;SDS011;9633;50.980;13.850;2023-05-14T05:41:25;10.87;;;9.70;;
18999;SDS011;9633;50.980;13.850;2023-05-14T05:43:00;10.17;;;9.10;;
18999;SDS011;9633;50.980;13.850;2023-05-14T05:44:33;9.90;;;8.93;;
18999;SDS011;9633;50.980;13.850;2023-05-14T05:46:06;9.40;;;8.40;;
18999;SDS011;9633;50.980;13.850;2023-05-14T05:47:41;8.47;;;7.67;;
18999;SDS011;9633;50.980;13.850;2023-05-14T05:49:14;9.00;;;8.07;;
18999;SDS011;9633;50.980;13.850;2023-05-14T05:50:48;8.80;;;7.90;;
18999;SDS011;9633;50.980;13.850;2023-05-14T05:52:22;9.97;;;7.33;;
18999;SDS011;9633;50.980;13.850;2023-05-14T05:53:56;7.53;;;6.83;;
18999;SDS011;9633;50.980;13.850;2023-05-14T05:55:29;8.00;;;7.20;;
18999;SDS011;9633;50.980;13.850;2023-05-14T05:57:03;7.80;;;7.00;;
18999;SDS011;9633;50.980;13.850;2023-05-14T05:58:37;7.90;;;7.20;;
18999;SDS011;9633;50.980;13.850;2023-05-14T06:00:09;7.50;;;6.90;;
18999;SDS011;9633;50.980;13.850;2023-05-14T06:01:47;8.80;;;7.63;;
18999;SDS011;9633;50.980;13.850;2023-05-14T06:03:22;7.77;;;7.07;;
18999;SDS011;9633;50.980;13.850;2023-05-14T06:04:55;8.10;;;7.40;;
18999;SDS011;9633;50.980;13.850;2023-05-14T06:06:29;8.10;;;7.30;;
18999;SDS011;9633;50.980;13.850;2023-05-14T06:08:03;9.80;;;7.17;;
18999;SDS011;9633;50.980;13.850;2023-05-14T06:09:37;9.97;;;7.50;;
18999;SDS011;9633;50.980;13.850;2023-05-14T06:11:10;7.70;;;7.00;;
18999;SDS011;9633;50.980;13.850;2023-05-14T06:12:44;7.67;;;6.97;;
18999;SDS011;9633;50.980;13.850;2023-05-14T06:14:17;8.17;;;7.37;;
18999;SDS011;9633;50.980;13.850;2023-05-14T06:15:49;7.87;;;7.17;;
18999;SDS011;9633;50.980;13.850;2023-05-14T06:17:23;8.23;;;7.43;;
18999;SDS011;9633;50.980;13.850;2023-05-14T06:18:57;8.23;;;7.47;;
18999;SDS011;9633;50.980;13.850;2023-05-14T06:20:32;8.03;;;7.30;;
18999;SDS011;9633;50.980;13.850;2023-05-14T06:22:06;8.30;;;7.20;;
18999;SDS011;9633;50.980;13.850;2023-05-14T06:23:38;8.27;;;7.47;;
18999;SDS011;9633;50.980;13.850;2023-05-14T06:25:12;8.53;;;7.73;;
18999;SDS011;9633;50.980;13.850;2023-05-14T06:26:45;8.63;;;7.83;;
18999;SDS011;9633;50.980;13.850;2023-05-14T06:28:19;8.00;;;7.20;;
18999;SDS011;9633;50.980;13.850;2023-05-14T06:29:53;8.90;;;8.10;;
18999;SDS011;9633;50.980;13.850;2023-05-14T06:31:26;7.97;;;7.17;;
18999;SDS011;9633;50.980;13.850;2023-05-14T06:33:00;8.27;;;7.47;;
18999;SDS011;9633;50.980;13.850;2023-05-14T06:34:35;8.73;;;7.83;;
18999;SDS011;9633;50.980;13.850;2023-05-14T06:36:08;8.73;;;7.83;;
18999;SDS011;9633;50.980;13.850;2023-05-14T06:37:42;9.57;;;7.90;;
18999;SDS011;9633;50.980;13.850;2023-05-14T06:39:14;7.83;;;7.10;;
18999;SDS011;9633;50.980;13.850;2023-05-14T06:40:48;7.47;;;6.77;;
18999;SDS011;9633;50.980;13.850;2023-05-14T06:42:20;7.80;;;7.03;;
18999;SDS011;9633;50.980;13.850;2023-05-14T06:43:53;7.73;;;6.97;;
18999;SDS011;9633;50.980;13.850;2023-05-14T06:45:27;7.40;;;6.80;;
18999;SDS011;9633;50.980;13.850;2023-05-14T06:47:02;6.80;;;6.20;;
18999;SDS011;9633;50.980;13.850;2023-05-14T06:48:38;7.40;;;6.70;;
18999;SDS011;9633;50.980;13.850;2023-05-14T06:50:13;7.70;;;6.90;;
18999;SDS011;9633;50.980;13.850;2023-05-14T06:51:47;7.20;;;6.50;;
18999;SDS011;9633;50.980;13.850;2023-05-14T06:53:20;6.80;;;6.10;;
18999;SDS011;9633;50.980;13.850;2023-05-14T06:54:54;7.57;;;6.80;;
18999;SDS011;9633;50.980;13.850;2023-05-14T06:56:27;7.30;;;6.60;;
18999;SDS011;9633;50.980;13.850;2023-05-14T06:58:01;7.50;;;6.30;;
18999;SDS011;9633;50.980;13.850;2023-05-14T06:59:33;6.40;;;5.80;;
18999;SDS011;9633;50.980;13.850;2023-05-14T07:01:06;6.70;;;6.10;;
18999;SDS011;9633;50.980;13.850;2023-05-14T07:02:40;9.03;;;8.13;;
18999;SDS011;9633;50.980;13.850;2023-05-14T07:04:14;6.97;;;6.30;;
18999;SDS011;9633;50.980;13.850;2023-05-14T07:05:48;6.73;;;6.07;;
18999;SDS011;9633;50.980;13.850;2023-05-14T07:07:22;7.00;;;6.30;;
18999;SDS011;9633;50.980;13.850;2023-05-14T07:08:55;6.47;;;5.87;;
18999;SDS011;9633;50.980;13.850;2023-05-14T07:10:29;6.87;;;6.27;;
18999;SDS011;9633;50.980;13.850;2023-05-14T07:12:03;7.13;;;6.43;;
18999;SDS011;9633;50.980;13.850;2023-05-14T07:13:36;8.00;;;6.10;;
18999;SDS011;9633;50.980;13.850;2023-05-14T07:15:10;6.87;;;6.27;;
18999;SDS011;9633;50.980;13.850;2023-05-14T07:16:44;6.93;;;6.30;;
18999;SDS011;9633;50.980;13.850;2023-05-14T07:18:17;7.37;;;6.70;;
18999;SDS011;9633;50.980;13.850;2023-05-14T07:19:51;7.90;;;7.20;;
18999;SDS011;9633;50.980;13.850;2023-05-14T07:21:27;8.67;;;7.40;;
18999;SDS011;9633;50.980;13.850;2023-05-14T07:23:00;8.40;;;6.90;;
18999;SDS011;9633;50.980;13.850;2023-05-14T07:24:34;7.73;;;7.03;;
18999;SDS011;9633;50.980;13.850;2023-05-14T07:26:07;7.80;;;6.70;;
18999;SDS011;9633;50.980;13.850;2023-05-14T07:27:40;7.10;;;6.40;;
18999;SDS011;9633;50.980;13.850;2023-05-14T07:29:14;8.03;;;7.23;;
18999;SDS011;9633;50.980;13.850;2023-05-14T07:30:47;7.90;;;7.13;;
18999;SDS011;9633;50.980;13.850;2023-05-14T07:32:21;7.87;;;7.17;;
18999;SDS011;9633;50.980;13.850;2023-05-14T07:33:55;7.30;;;6.60;;
18999;SDS011;9633;50.980;13.850;2023-05-14T07:35:29;6.73;;;6.13;;
18999;SDS011;9633;50.980;13.850;2023-05-14T07:37:03;8.87;;;6.50;;
18999;SDS011;9633;50.980;13.850;2023-05-14T07:38:37;7.10;;;6.50;;
18999;SDS011;9633;50.980;13.850;2023-05-14T07:40:11;7.50;;;6.80;;
18999;SDS011;9633;50.980;13.850;2023-05-14T07:41:44;7.70;;;6.77;;
18999;SDS011;9633;50.980;13.850;2023-05-14T07:43:17;7.50;;;6.73;;
18999;SDS011;9633;50.980;13.850;2023-05-14T07:44:50;8.63;;;7.40;;
18999;SDS011;9633;50.980;13.850;2023-05-14T07:46:23;7.50;;;6.40;;
18999;SDS011;9633;50.980;13.850;2023-05-14T07:47:57;9.00;;;6.97;;
18999;SDS011;9633;50.980;13.850;2023-05-14T07:49:31;7.07;;;6.50;;
18999;SDS011;9633;50.980;13.850;2023-05-14T07:51:04;6.97;;;6.37;;
18999;SDS011;9633;50.980;13.850;2023-05-14T07:52:39;7.83;;;7.07;;
18999;SDS011;9633;50.980;13.850;2023-05-14T07:54:12;7.23;;;6.53;;
18999;SDS011;9633;50.980;13.850;2023-05-14T07:55:47;6.83;;;6.33;;
18999;SDS011;9633;50.980;13.850;2023-05-14T07:57:22;7.90;;;6.53;;
18999;SDS011;9633;50.980;13.850;2023-05-14T07:58:55;6.83;;;6.23;;
18999;SDS011;9633;50.980;13.850;2023-05-14T08:00:29;7.20;;;6.60;;
18999;SDS011;9633;50.980;13.850;2023-05-14T08:02:02;7.30;;;6.57;;
18999;SDS011;9633;50.980;13.850;2023-05-14T08:03:36;7.93;;;7.07;;
18999;SDS011;9633;50.980;13.850;2023-05-14T08:05:10;8.60;;;6.50;;
18999;SDS011;9633;50.980;13.850;2023-05-14T08:06:43;7.70;;;6.90;;
18999;SDS011;9633;50.980;13.850;2023-05-14T08:08:18;7.47;;;6.77;;
18999;SDS011;9633;50.980;13.850;2023-05-14T08:09:52;8.10;;;7.13;;
18999;SDS011;9633;50.980;13.850;2023-05-14T08:11:25;7.53;;;6.83;;
18999;SDS011;9633;50.980;13.850;2023-05-14T08:12:58;7.77;;;7.03;;
18999;SDS011;9633;50.980;13.850;2023-05-14T08:14:32;10.23;;;7.47;;
18999;SDS011;9633;50.980;13.850;2023-05-14T08:16:06;8.20;;;7.20;;
18999;SDS011;9633;50.980;13.850;2023-05-14T08:17:39;7.70;;;7.00;;
18999;SDS011;9633;50.980;13.850;2023-05-14T08:19:14;7.57;;;6.80;;
18999;SDS011;9633;50.980;13.850;2023-05-14T08:20:48;7.90;;;7.10;;
18999;SDS011;9633;50.980;13.850;2023-05-14T08:22:21;7.53;;;6.73;;
18999;SDS011;9633;50.980;13.850;2023-05-14T08:23:56;7.27;;;6.57;;
18999;SDS011;9633;50.980;13.850;2023-05-14T08:25:29;7.30;;;6.60;;
18999;SDS011;9633;50.980;13.850;2023-05-14T08:27:03;6.87;;;6.30;;
18999;SDS011;9633;50.980;13.850;2023-05-14T08:28:37;7.33;;;6.67;;
18999;SDS011;9633;50.980;13.850;2023-05-14T08:30:11;8.27;;;6.37;;
18999;SDS011;9633;50.980;13.850;2023-05-14T08:31:44;6.60;;;5.83;;
18999;SDS011;9633;50.980;13.850;2023-05-14T08:33:18;6.10;;;5.57;;
18999;SDS011;9633;50.980;13.850;2023-05-14T08:34:50;5.80;;;5.30;;
18999;SDS011;9633;50.980;13.850;2023-05-14T08:36:23;5.67;;;5.17;;
18999;SDS011;9633;50.980;13.850;2023-05-14T08:37:57;4.80;;;4.30;;
18999;SDS011;9633;50.980;13.850;2023-05-14T08:39:32;4.60;;;4.20;;
18999;SDS011;9633;50.980;13.850;2023-05-14T08:41:05;5.40;;;4.50;;
18999;SDS011;9633;50.980;13.850;2023-05-14T08:42:39;7.03;;;4.77;;
18999;SDS011;9633;50.980;13.850;2023-05-14T08:44:17;5.33;;;4.40;;
18999;SDS011;9633;50.980;13.850;2023-05-14T08:45:51;4.73;;;4.33;;
18999;SDS011;9633;50.980;13.850;2023-05-14T08:47:26;5.60;;;3.90;;
18999;SDS011;9633;50.980;13.850;2023-05-14T08:49:03;5.43;;;4.70;;
18999;SDS011;9633;50.980;13.850;2023-05-14T08:50:36;4.60;;;4.20;;
18999;SDS011;9633;50.980;13.850;2023-05-14T08:52:10;4.57;;;4.10;;
18999;SDS011;9633;50.980;13.850;2023-05-14T08:53:44;6.07;;;4.73;;
18999;SDS011;9633;50.980;13.850;2023-05-14T08:55:18;4.77;;;4.17;;
18999;SDS011;9633;50.980;13.850;2023-05-14T08:56:52;5.03;;;4.60;;
18999;SDS011;9633;50.980;13.850;2023-05-14T08:58:26;4.73;;;4.33;;
18999;SDS011;9633;50.980;13.850;2023-05-14T09:00:00;4.70;;;4.30;;
18999;SDS011;9633;50.980;13.850;2023-05-14T09:01:37;4.97;;;4.47;;
18999;SDS011;9633;50.980;13.850;2023-05-14T09:03:11;6.07;;;4.63;;
18999;SDS011;9633;50.980;13.850;2023-05-14T09:04:45;4.67;;;4.27;;
18999;SDS011;9633;50.980;13.850;2023-05-14T09:06:18;4.53;;;4.23;;
18999;SDS011;9633;50.980;13.850;2023-05-14T09:07:52;4.97;;;4.57;;
18999;SDS011;9633;50.980;13.850;2023-05-14T09:09:27;5.53;;;5.03;;
18999;SDS011;9633;50.980;13.850;2023-05-14T09:11:02;5.70;;;5.20;;
18999;SDS011;9633;50.980;13.850;2023-05-14T09:12:35;6.17;;;5.07;;
18999;SDS011;9633;50.980;13.850;2023-05-14T09:14:09;7.83;;;6.00;;
18999;SDS011;9633;50.980;13.850;2023-05-14T09:15:42;6.90;;;6.17;;